createdAt,value
2023-02-18T00:01:59.814Z,35.30
2023-02-18T00:04:28.194Z,36.70
2023-02-18T00:06:56.977Z,36.30
2023-02-18T00:09:26.585Z,37.00
2023-02-18T00:11:55.168Z,35.50
2023-02-18T00:14:24.159Z,35.70
2023-02-18T00:16:53.220Z,33.40
2023-02-18T00:19:22.192Z,35.10
2023-02-18T00:21:50.521Z,36.20
2023-02-18T00:24:19.006Z,34.80
2023-02-18T00:26:50.867Z,34.90
2023-02-18T00:29:20.095Z,34.30
2023-02-18T00:31:52.244Z,32.70
2023-02-18T00:34:21.010Z,32.00
2023-02-18T00:36:49.796Z,31.70
2023-02-18T00:39:18.175Z,31.70
2023-02-18T00:41:46.968Z,32.50
2023-02-18T00:44:17.304Z,32.00
2023-02-18T00:46:48.533Z,31.50
2023-02-18T00:49:17.336Z,32.70
2023-02-18T00:51:45.596Z,33.40
2023-02-18T00:54:14.000Z,31.40
2023-02-18T00:56:42.669Z,34.00
2023-02-18T00:59:11.547Z,34.70
2023-02-18T01:01:42.005Z,34.30
2023-02-18T01:04:16.499Z,33.80
2023-02-18T01:06:45.199Z,33.50
2023-02-18T01:09:13.875Z,32.30
2023-02-18T01:11:43.279Z,33.10
2023-02-18T01:14:12.165Z,31.20
2023-02-18T01:16:43.516Z,32.00
2023-02-18T01:19:12.102Z,31.50
2023-02-18T01:21:40.608Z,31.70
2023-02-18T01:24:09.895Z,29.00
2023-02-18T01:26:38.561Z,27.50
2023-02-18T01:29:07.961Z,25.90
2023-02-18T01:31:36.734Z,26.90
2023-02-18T01:34:07.995Z,25.60
2023-02-18T01:36:36.592Z,26.60
2023-02-18T01:39:09.769Z,26.00
2023-02-18T01:41:38.246Z,26.80
2023-02-18T01:44:26.592Z,27.40
2023-02-18T01:46:56.109Z,27.00
2023-02-18T01:49:34.408Z,27.50
2023-02-18T01:52:09.049Z,29.10
2023-02-18T01:54:40.102Z,27.70
2023-02-18T01:57:13.263Z,31.90
2023-02-18T01:59:46.041Z,30.40
2023-02-18T02:02:18.103Z,31.30
2023-02-18T02:04:46.788Z,32.70
2023-02-18T02:07:15.724Z,31.30
2023-02-18T02:09:44.281Z,30.90
2023-02-18T02:12:47.863Z,31.90
2023-02-18T02:15:37.439Z,31.40
2023-02-18T02:18:36.438Z,32.10
2023-02-18T02:21:39.435Z,31.30
2023-02-18T02:24:23.882Z,31.30
2023-02-18T02:27:06.630Z,31.70
2023-02-18T02:29:55.078Z,34.60
2023-02-18T02:32:29.061Z,32.10
2023-02-18T02:35:01.526Z,32.50
2023-02-18T02:40:35.759Z,33.20
2023-02-18T02:43:19.313Z,32.20
2023-02-18T02:46:04.527Z,34.30
2023-02-18T02:48:48.148Z,32.80
2023-02-18T02:51:56.930Z,34.20
2023-02-18T02:54:26.924Z,34.00
2023-02-18T02:57:29.221Z,32.50
2023-02-18T03:00:12.345Z,32.80
2023-02-18T03:02:49.773Z,32.60
2023-02-18T03:05:52.931Z,32.00
2023-02-18T03:08:46.206Z,31.00
2023-02-18T03:11:15.491Z,31.20
2023-02-18T03:13:56.784Z,30.00
2023-02-18T03:16:28.479Z,30.80
2023-02-18T03:19:10.959Z,30.70
2023-02-18T03:21:54.096Z,32.00
2023-02-18T03:24:24.792Z,29.90
2023-02-18T03:26:59.849Z,30.70
2023-02-18T03:29:28.320Z,30.20
2023-02-18T03:32:02.744Z,31.80
2023-02-18T03:34:32.966Z,30.00
2023-02-18T03:37:05.733Z,30.70
2023-02-18T03:39:35.030Z,29.90
2023-02-18T03:42:05.869Z,29.40
2023-02-18T03:44:34.753Z,29.80
2023-02-18T03:47:03.254Z,29.70
2023-02-18T03:49:31.919Z,28.90
2023-02-18T03:52:00.911Z,30.20
2023-02-18T03:54:30.209Z,28.80
2023-02-18T03:56:58.790Z,30.20
2023-02-18T03:59:27.070Z,29.40
2023-02-18T04:01:55.655Z,29.80
2023-02-18T04:04:24.142Z,29.10
2023-02-18T04:06:54.042Z,30.10
2023-02-18T04:09:23.555Z,30.00
2023-02-18T04:11:52.236Z,30.20
2023-02-18T04:14:20.609Z,29.70
2023-02-18T04:16:51.900Z,29.50
2023-02-18T04:19:20.845Z,30.50
2023-02-18T04:21:50.045Z,29.60
2023-02-18T04:24:18.523Z,29.10
2023-02-18T04:26:47.081Z,29.50
2023-02-18T04:29:15.382Z,30.20
2023-02-18T04:31:44.548Z,30.40
2023-02-18T04:34:13.056Z,29.40
2023-02-18T04:36:41.541Z,30.30
2023-02-18T04:39:10.337Z,29.80
2023-02-18T04:41:39.011Z,29.80
2023-02-18T04:44:10.153Z,30.10
2023-02-18T04:46:38.954Z,30.70
2023-02-18T04:49:08.241Z,30.10
2023-02-18T04:51:37.953Z,31.60
2023-02-18T04:56:37.890Z,30.40
2023-02-18T04:59:06.367Z,31.30
2023-02-18T05:01:35.005Z,29.70
2023-02-18T05:04:03.688Z,30.40
2023-02-18T05:06:32.731Z,29.20
2023-02-18T05:09:01.316Z,30.00
2023-02-18T05:11:29.999Z,31.00
2023-02-18T05:13:58.482Z,31.10
2023-02-18T05:16:27.081Z,30.50
2023-02-18T05:18:55.748Z,31.70
2023-02-18T05:21:24.235Z,31.70
2023-02-18T05:23:52.822Z,30.80
2023-02-18T05:26:21.599Z,30.90
2023-02-18T05:28:50.395Z,31.50
2023-02-18T05:31:19.026Z,32.50
2023-02-18T05:33:48.197Z,31.50
2023-02-18T05:36:17.260Z,29.90
2023-02-18T05:38:47.278Z,31.70
2023-02-18T05:41:15.552Z,31.60
2023-02-18T05:44:02.874Z,30.00
2023-02-18T05:46:31.674Z,29.90
2023-02-18T05:49:00.658Z,29.50
2023-02-18T05:51:29.132Z,30.60
2023-02-18T05:57:18.522Z,30.20
2023-02-18T05:59:46.928Z,30.90
2023-02-18T06:02:15.280Z,29.90
2023-02-18T06:04:43.556Z,29.20
2023-02-18T06:07:12.249Z,28.60
2023-02-18T06:09:41.368Z,28.00
2023-02-18T06:12:11.584Z,29.80
2023-02-18T06:14:42.490Z,29.80
2023-02-18T06:17:16.811Z,29.60
2023-02-18T06:19:46.318Z,28.30
2023-02-18T06:22:15.105Z,28.50
2023-02-18T06:24:43.583Z,27.30
2023-02-18T06:27:12.274Z,27.50
2023-02-18T06:29:40.646Z,27.30
2023-02-18T06:32:09.458Z,27.60
2023-02-18T06:34:38.016Z,26.60
2023-02-18T06:37:06.700Z,26.90
2023-02-18T06:39:39.488Z,25.50
2023-02-18T06:42:08.061Z,26.50
2023-02-18T06:44:38.136Z,25.20
2023-02-18T06:47:07.493Z,24.80
2023-02-18T06:49:36.780Z,24.90
2023-02-18T06:52:05.784Z,25.20
2023-02-18T06:54:34.673Z,24.20
2023-02-18T06:57:03.141Z,24.60
2023-02-18T06:59:32.351Z,23.50
2023-02-18T07:02:02.048Z,23.10
2023-02-18T07:04:30.631Z,24.40
2023-02-18T07:06:59.217Z,24.10
2023-02-18T07:09:28.232Z,22.50
2023-02-18T07:11:56.997Z,22.60
2023-02-18T07:14:26.729Z,59.10
2023-02-18T07:16:55.190Z,29.20
2023-02-18T07:19:27.351Z,31.40
2023-02-18T07:21:57.957Z,24.10
2023-02-18T07:24:26.562Z,20.70
2023-02-18T07:26:55.044Z,19.70
2023-02-18T07:29:23.318Z,20.50
2023-02-18T07:53:38.157Z,21.70
2023-02-18T07:56:06.107Z,21.40
2023-02-18T07:58:35.311Z,20.80
2023-02-18T08:01:09.707Z,20.40
2023-02-18T08:03:36.516Z,20.00
2023-02-18T08:06:04.501Z,19.60
2023-02-18T08:08:32.170Z,18.50
2023-02-18T08:14:23.203Z,19.70
2023-02-18T08:16:55.286Z,18.50
2023-02-18T08:19:24.052Z,19.10
2023-02-18T08:21:52.632Z,17.40
2023-02-18T08:24:21.011Z,17.60
2023-02-18T08:27:00.380Z,17.40
2023-02-18T08:29:30.066Z,17.20
2023-02-18T08:31:59.973Z,18.90
2023-02-18T08:34:28.449Z,18.10
2023-02-18T08:36:58.163Z,18.00
2023-02-18T08:39:27.150Z,17.50
2023-02-18T08:41:57.199Z,16.90
2023-02-18T08:44:25.442Z,17.70
2023-02-18T08:46:54.286Z,17.90
2023-02-18T08:49:24.462Z,17.10
2023-02-18T08:51:52.730Z,16.00
2023-02-18T08:54:21.516Z,16.30
2023-02-18T08:56:49.787Z,16.30
2023-02-18T08:59:18.485Z,15.60
2023-02-18T09:01:47.266Z,16.40
2023-02-18T09:04:16.210Z,16.50
2023-02-18T09:06:46.991Z,16.50
2023-02-18T09:09:15.379Z,16.50
2023-02-18T09:11:44.907Z,16.10
2023-02-18T09:14:13.350Z,15.60
2023-02-18T09:16:42.753Z,15.40
2023-02-18T09:19:12.053Z,15.60
2023-02-18T09:21:40.534Z,16.40
2023-02-18T09:24:10.862Z,15.90
2023-02-18T09:26:39.946Z,16.00
2023-02-18T09:29:10.888Z,15.40
2023-02-18T09:31:41.222Z,15.40
2023-02-18T09:34:09.893Z,15.70
2023-02-18T09:36:39.913Z,16.20
2023-02-18T09:39:08.301Z,14.50
2023-02-18T09:41:39.920Z,16.00
2023-02-18T09:44:25.542Z,14.50
2023-02-18T09:47:12.334Z,13.90
2023-02-18T09:49:42.353Z,15.80
2023-02-18T09:52:18.303Z,14.50
2023-02-18T09:54:46.579Z,15.10
2023-02-18T09:57:27.436Z,15.50
2023-02-18T10:00:05.310Z,15.00
2023-02-18T10:03:06.292Z,14.20
2023-02-18T10:05:36.120Z,14.00
2023-02-18T10:08:07.406Z,13.50
2023-02-18T10:10:41.914Z,13.00
2023-02-18T10:13:15.932Z,13.50
2023-02-18T10:15:44.460Z,14.20
2023-02-18T10:18:52.629Z,14.60
2023-02-18T10:21:24.746Z,14.20
2023-02-18T10:24:25.277Z,14.10
2023-02-18T10:26:55.708Z,13.40
2023-02-18T10:29:25.420Z,13.00
2023-02-18T10:32:00.718Z,12.60
2023-02-18T10:34:44.499Z,13.30
2023-02-18T10:37:33.760Z,13.00
2023-02-18T10:40:23.948Z,14.40
2023-02-18T10:43:30.830Z,13.40
2023-02-18T10:46:22.832Z,13.20
2023-02-18T10:49:00.262Z,13.50
2023-02-18T10:51:30.066Z,11.80
2023-02-18T10:53:59.360Z,12.10
2023-02-18T10:56:40.756Z,12.10
2023-02-18T10:59:19.361Z,13.00
2023-02-18T11:01:55.069Z,12.80
2023-02-18T11:04:27.914Z,12.90
2023-02-18T11:06:56.381Z,11.50
2023-02-18T11:09:27.005Z,11.40
2023-02-18T11:12:08.675Z,13.00
2023-02-18T11:14:45.569Z,12.00
2023-02-18T11:17:21.794Z,11.80
2023-02-18T11:19:54.550Z,11.40
2023-02-18T11:22:29.652Z,11.30
2023-02-18T11:24:59.862Z,11.00
2023-02-18T11:27:45.125Z,11.70
2023-02-18T11:30:34.074Z,10.90
2023-02-18T11:33:22.245Z,11.60
2023-02-18T11:35:55.140Z,11.90
2023-02-18T11:38:24.636Z,11.10
2023-02-18T11:40:57.992Z,10.80
2023-02-18T11:43:28.465Z,11.60
2023-02-18T11:46:16.639Z,10.40
2023-02-18T11:48:45.710Z,9.30
2023-02-18T11:51:40.401Z,9.10
2023-02-18T11:54:26.900Z,8.40
2023-02-18T11:56:58.295Z,7.70
2023-02-18T11:59:26.594Z,7.90
2023-02-18T12:02:24.288Z,7.60
2023-02-18T12:05:05.413Z,7.70
2023-02-18T12:07:45.994Z,7.20
2023-02-18T12:10:16.255Z,7.20
2023-02-18T12:12:59.832Z,7.30
2023-02-18T12:15:38.097Z,6.90
2023-02-18T12:18:13.129Z,6.60
2023-02-18T12:21:13.665Z,6.90
2023-02-18T12:23:42.248Z,6.40
2023-02-18T12:26:29.874Z,6.30
2023-02-18T12:29:26.161Z,6.40
2023-02-18T12:32:09.976Z,6.70
2023-02-18T12:34:42.533Z,6.20
2023-02-18T12:37:49.723Z,6.30
2023-02-18T12:40:21.261Z,6.40
2023-02-18T12:42:57.057Z,6.00
2023-02-18T12:45:56.741Z,6.00
2023-02-18T12:48:45.686Z,6.60
2023-02-18T12:51:49.707Z,6.30
2023-02-18T12:54:30.688Z,6.30
2023-02-18T12:57:42.470Z,6.00
2023-02-18T13:00:32.453Z,5.90
2023-02-18T13:03:25.254Z,5.90
2023-02-18T13:06:12.530Z,5.60
2023-02-18T13:09:08.448Z,5.70
2023-02-18T13:11:36.927Z,5.90
2023-02-18T13:14:14.114Z,6.00
2023-02-18T13:16:46.438Z,5.40
2023-02-18T13:19:32.172Z,5.00
2023-02-18T13:22:03.314Z,4.90
2023-02-18T13:24:39.329Z,4.70
2023-02-18T13:27:36.073Z,5.30
2023-02-18T13:30:16.459Z,4.70
2023-02-18T13:32:51.494Z,4.90
2023-02-18T13:35:25.315Z,4.40
2023-02-18T13:38:03.312Z,4.60
2023-02-18T13:40:32.509Z,4.50
2023-02-18T13:43:34.273Z,4.20
2023-02-18T13:48:53.165Z,4.30
2023-02-18T13:51:39.256Z,4.40
2023-02-18T13:54:13.450Z,5.20
2023-02-18T13:56:55.046Z,4.70
2023-02-18T13:59:29.795Z,4.50
2023-02-18T14:02:20.012Z,5.40
2023-02-18T14:04:51.410Z,5.20
2023-02-18T14:07:44.158Z,5.00
2023-02-18T14:10:14.168Z,4.50
2023-02-18T14:12:44.516Z,4.90
2023-02-18T14:15:18.602Z,4.90
2023-02-18T14:18:10.899Z,4.80
2023-02-18T14:20:40.149Z,4.70
2023-02-18T14:23:18.659Z,4.60
2023-02-18T14:25:57.482Z,4.60
2023-02-18T14:28:35.386Z,5.00
2023-02-18T14:31:04.430Z,5.30
2023-02-18T14:33:35.318Z,5.00
2023-02-18T14:36:16.289Z,4.50
2023-02-18T14:39:05.966Z,5.20
2023-02-18T14:41:44.076Z,5.00
2023-02-18T14:44:30.493Z,5.00
2023-02-18T14:47:05.820Z,5.20
2023-02-18T14:49:38.905Z,5.30
2023-02-18T14:52:13.017Z,4.90
2023-02-18T14:54:42.523Z,4.90
2023-02-18T14:57:14.993Z,5.10
2023-02-18T14:59:49.521Z,5.00
2023-02-18T15:02:23.858Z,4.80
2023-02-18T15:04:52.219Z,4.90
2023-02-18T15:07:21.721Z,4.90
2023-02-18T15:09:54.325Z,4.70
2023-02-18T15:12:25.767Z,5.10
2023-02-18T15:17:24.801Z,5.80
2023-02-18T15:19:55.077Z,5.30
2023-02-18T15:22:27.755Z,5.00
2023-02-18T15:24:56.442Z,5.70
2023-02-18T15:27:31.682Z,5.40
2023-02-18T15:30:17.600Z,6.10
2023-02-18T15:32:50.174Z,6.00
2023-02-18T15:35:20.057Z,6.30
2023-02-18T15:37:53.386Z,5.90
2023-02-18T15:40:23.040Z,5.80
2023-02-18T15:42:52.918Z,5.60
2023-02-18T15:45:22.734Z,6.50
2023-02-18T15:47:53.526Z,6.40
2023-02-18T15:50:23.230Z,6.90
2023-02-18T15:52:52.220Z,6.40
2023-02-18T15:55:34.561Z,7.00
2023-02-18T15:58:04.878Z,7.50
2023-02-18T16:00:40.490Z,7.40
2023-02-18T16:03:28.141Z,7.40
2023-02-18T16:06:13.000Z,7.70
2023-02-18T16:08:41.475Z,7.70
2023-02-18T16:11:12.202Z,7.10
2023-02-18T16:13:47.237Z,7.40
2023-02-18T16:16:24.031Z,7.20
2023-02-18T16:18:53.618Z,7.60
2023-02-18T16:21:31.424Z,8.00
2023-02-18T16:24:01.583Z,7.60
2023-02-18T16:26:39.958Z,7.90
2023-02-18T16:29:34.460Z,7.70
2023-02-18T16:32:03.320Z,9.30
2023-02-18T16:34:31.914Z,9.50
2023-02-18T16:37:19.390Z,10.30
2023-02-18T16:39:49.764Z,9.90
2023-02-18T16:42:18.142Z,10.40
2023-02-18T16:44:48.356Z,10.80
2023-02-18T16:47:17.681Z,10.60
2023-02-18T16:49:47.377Z,10.20
2023-02-18T16:52:17.296Z,12.50
2023-02-18T16:54:48.159Z,12.10
2023-02-18T16:57:16.603Z,12.60
2023-02-18T16:59:45.344Z,12.60
2023-02-18T17:02:19.196Z,11.40
2023-02-18T17:04:47.984Z,11.40
2023-02-18T17:07:16.260Z,14.60
2023-02-18T17:09:44.641Z,12.70
2023-02-18T17:12:13.732Z,12.90
2023-02-18T17:14:42.213Z,12.90
2023-02-18T17:17:14.380Z,23.80
2023-02-18T17:19:42.758Z,19.00
2023-02-18T17:22:12.983Z,18.90
2023-02-18T17:24:41.375Z,16.40
2023-02-18T17:27:11.378Z,14.80
2023-02-18T17:29:39.892Z,18.90
2023-02-18T17:32:11.544Z,17.50
2023-02-18T17:34:41.319Z,15.60
2023-02-18T17:37:13.182Z,14.20
2023-02-18T17:39:41.867Z,14.50
2023-02-18T17:42:14.959Z,14.30
2023-02-18T17:44:45.178Z,15.10
2023-02-18T17:47:13.658Z,16.50
2023-02-18T17:49:42.585Z,16.70
2023-02-18T17:52:24.036Z,17.20
2023-02-18T17:54:52.513Z,16.70
2023-02-18T17:57:20.891Z,15.20
2023-02-18T17:59:49.372Z,17.70
2023-02-18T18:02:27.920Z,19.90
2023-02-18T18:04:56.264Z,21.20
2023-02-18T18:07:24.847Z,22.50
2023-02-18T18:09:55.298Z,22.30
2023-02-18T18:12:23.750Z,19.70
2023-02-18T18:14:53.021Z,20.00
2023-02-18T18:17:21.338Z,19.00
2023-02-18T18:19:49.808Z,18.90
2023-02-18T18:22:19.008Z,20.00
2023-02-18T18:24:47.485Z,25.70
2023-02-18T18:27:15.864Z,24.40
2023-02-18T18:29:44.242Z,20.60
2023-02-18T18:32:16.827Z,20.60
2023-02-18T18:34:49.049Z,22.70
2023-02-18T18:37:17.880Z,20.10
2023-02-18T18:39:46.268Z,25.30
2023-02-18T18:42:14.538Z,22.90
2023-02-18T18:44:43.426Z,18.20
2023-02-18T18:47:12.239Z,14.00
2023-02-18T18:49:40.694Z,13.20
2023-02-18T18:52:11.136Z,12.60
2023-02-18T18:54:41.670Z,12.80
2023-02-18T18:57:10.156Z,13.30
2023-02-18T18:59:44.250Z,13.10
2023-02-18T19:02:16.216Z,13.10
2023-02-18T19:04:44.619Z,16.40
2023-02-18T19:07:13.366Z,19.30
2023-02-18T19:09:41.950Z,15.80
2023-02-18T19:12:10.744Z,14.50
2023-02-18T19:14:39.221Z,13.10
2023-02-18T19:17:07.634Z,13.20
2023-02-18T19:19:36.079Z,13.80
2023-02-18T19:22:04.463Z,13.30
2023-02-18T19:24:33.647Z,13.20
2023-02-18T19:27:02.143Z,12.40
2023-02-18T19:29:30.612Z,12.00
2023-02-18T19:31:59.317Z,11.80
2023-02-18T19:34:28.285Z,11.30
2023-02-18T19:36:56.771Z,12.00
2023-02-18T19:39:26.272Z,11.60
2023-02-18T19:41:54.665Z,11.50
2023-02-18T19:44:26.517Z,11.60
2023-02-18T19:46:55.507Z,10.80
2023-02-18T19:49:26.343Z,11.70
2023-02-18T19:51:54.675Z,11.50
2023-02-18T19:54:22.902Z,11.00
2023-02-18T19:56:51.609Z,10.30
2023-02-18T19:59:19.855Z,10.80
2023-02-18T20:01:48.614Z,10.90
2023-02-18T20:04:17.129Z,10.80
2023-02-18T20:06:45.502Z,10.80
2023-02-18T20:09:14.086Z,11.20
2023-02-18T20:11:42.565Z,12.00
2023-02-18T20:14:10.952Z,10.70
2023-02-18T20:16:39.422Z,10.70
2023-02-18T20:19:08.620Z,10.30
2023-02-18T20:21:38.021Z,10.80
2023-02-18T20:24:10.096Z,11.10
2023-02-18T20:26:38.369Z,11.70
2023-02-18T20:29:06.945Z,10.90
2023-02-18T20:31:35.571Z,10.50
2023-02-18T20:34:04.032Z,11.00
2023-02-18T20:36:32.897Z,12.00
2023-02-18T20:39:15.411Z,11.70
2023-02-18T20:41:45.546Z,11.20
2023-02-18T20:44:15.973Z,11.30
2023-02-18T20:46:44.591Z,11.70
2023-02-18T20:49:15.181Z,11.30
2023-02-18T20:51:43.850Z,12.10
2023-02-18T20:54:15.917Z,11.20
2023-02-18T20:59:14.209Z,10.90
2023-02-18T21:01:43.443Z,10.40
2023-02-18T21:04:12.704Z,10.90
2023-02-18T21:06:41.193Z,10.80
2023-02-18T21:09:10.800Z,10.50
2023-02-18T21:11:40.321Z,10.70
2023-02-18T21:14:09.289Z,10.60
2023-02-18T21:16:40.663Z,10.80
2023-02-18T21:19:12.116Z,10.50
2023-02-18T21:21:40.462Z,10.30
2023-02-18T21:24:09.558Z,10.00
2023-02-18T21:26:38.446Z,9.20
2023-02-18T21:29:08.567Z,9.60
2023-02-18T21:31:41.454Z,9.90
2023-02-18T21:34:13.739Z,9.50
2023-02-18T21:36:43.650Z,8.90
2023-02-18T21:39:12.009Z,9.60
2023-02-18T21:41:42.233Z,9.50
2023-02-18T21:44:10.606Z,10.30
2023-02-18T21:46:39.437Z,9.70
2023-02-18T21:49:10.032Z,9.60
2023-02-18T21:51:57.564Z,10.30
2023-02-18T21:54:40.582Z,9.80
2023-02-18T21:57:22.161Z,9.00
2023-02-18T21:59:50.853Z,8.40
2023-02-18T22:02:21.760Z,8.50
2023-02-18T22:04:50.785Z,8.70
2023-02-18T22:07:21.930Z,8.50
2023-02-18T22:09:51.020Z,8.30
2023-02-18T22:12:21.867Z,7.90
2023-02-18T22:14:50.347Z,8.00
2023-02-18T22:17:19.541Z,8.00
2023-02-18T22:19:50.091Z,8.40
2023-02-18T22:22:18.756Z,7.90
2023-02-18T22:24:47.434Z,7.30
2023-02-18T22:27:15.922Z,7.60
2023-02-18T22:29:47.669Z,7.30
2023-02-18T22:32:16.467Z,7.50
2023-02-18T22:34:44.854Z,8.00
2023-02-18T22:37:13.342Z,8.10
2023-02-18T22:39:42.001Z,8.00
2023-02-18T22:42:10.281Z,7.60
2023-02-18T22:44:39.860Z,7.80
2023-02-18T22:47:08.158Z,7.40
2023-02-18T22:49:36.634Z,8.50
2023-02-18T22:52:07.580Z,8.20
2023-02-18T22:54:35.953Z,8.10
2023-02-18T22:57:04.464Z,8.00
2023-02-18T22:59:33.219Z,7.40
2023-02-18T23:02:01.704Z,8.00
2023-02-18T23:04:30.593Z,7.70
2023-02-18T23:06:58.877Z,8.30
2023-02-18T23:09:27.347Z,8.50
2023-02-18T23:11:57.669Z,8.50
2023-02-18T23:14:30.772Z,8.30
2023-02-18T23:17:15.424Z,8.00
2023-02-18T23:19:51.286Z,7.80
2023-02-18T23:22:32.465Z,10.90
2023-02-18T23:25:01.352Z,9.40
2023-02-18T23:27:30.437Z,10.40
2023-02-18T23:29:58.886Z,10.70
2023-02-18T23:32:29.146Z,10.10
2023-02-18T23:34:58.031Z,9.70
2023-02-18T23:37:45.882Z,8.80
2023-02-18T23:40:15.364Z,9.90
2023-02-18T23:42:43.660Z,9.40
2023-02-18T23:45:12.302Z,10.10
2023-02-18T23:47:40.613Z,9.60
2023-02-18T23:50:09.289Z,9.00
2023-02-18T23:52:38.793Z,9.50
2023-02-18T23:55:07.682Z,9.80
2023-02-18T23:57:35.988Z,9.70
